Time;durP1;ratioP1;P1;durP2;ratioP2;P2;SDS_P1;SDS_P2;PMS_P1;PMS_P2;Temp;Humidity;BMP_temperature;BMP_pressure;BME280_temperature;BME280_humidity;BME280_pressure;Samples;Min_cycle;Max_cycle;Signal;HPM_P1;HPM_P2
2022/12/12 00:00:50;;;;;;;;;31.50;27.75;;;;;2.48;70.65;101057.25;5053985;28;11589;-66
2022/12/12 00:03:17;;;;;;;;;31.00;23.50;;;;;2.51;70.99;101061.44;5059314;28;11622;-64
2022/12/12 00:05:44;;;;;;;;;34.25;28.25;;;;;2.51;70.72;101058.78;5052981;28;11620;-65
2022/12/12 00:08:10;;;;;;;;;24.50;21.25;;;;;2.48;70.72;101050.13;5067715;28;11565;-65
2022/12/12 00:10:37;;;;;;;;;34.25;31.00;;;;;2.45;71.04;101041.56;5056206;28;11594;-65
2022/12/12 00:13:03;;;;;;;;;30.25;28.25;;;;;2.46;70.61;101051.22;5053060;28;11575;-66
2022/12/12 00:15:29;;;;;;;;;34.00;26.00;;;;;2.46;71.04;101054.72;5059617;28;11587;-65
2022/12/12 00:17:56;;;;;;;;;35.50;28.50;;;;;2.45;71.16;101058.34;5055337;28;11590;-66
2022/12/12 00:20:22;;;;;;;;;35.25;32.25;;;;;2.47;71.14;101047.56;5042830;28;11591;-64
2022/12/12 00:22:49;;;;;;;;;23.75;21.50;;;;;2.44;71.31;101056.69;5064629;28;12330;-64
2022/12/12 00:25:15;;;;;;;;;35.75;31.75;;;;;2.42;71.29;101057.78;5069721;28;11554;-62
2022/12/12 00:27:42;;;;;;;;;28.50;26.00;;;;;2.38;71.33;101059.88;5060577;28;11622;-66
2022/12/12 00:30:09;;;;;;;;;22.25;22.25;;;;;2.37;71.15;101058.19;5059362;28;11640;-63
2022/12/12 00:32:35;;;;;;;;;25.75;25.50;;;;;2.38;71.34;101057.22;5066927;28;11565;-63
2022/12/12 00:35:02;;;;;;;;;32.00;25.50;;;;;2.37;71.61;101057.34;5066796;28;11591;-64
2022/12/12 00:37:28;;;;;;;;;25.75;25.75;;;;;2.40;71.93;101065.91;5065075;28;11553;-66
2022/12/12 00:39:55;;;;;;;;;29.75;26.50;;;;;2.42;71.73;101065.75;5067410;28;11551;-66
2022/12/12 00:42:21;;;;;;;;;27.00;24.75;;;;;2.43;72.12;101062.97;5064479;28;11609;-65
2022/12/12 00:44:47;;;;;;;;;38.50;27.50;;;;;2.43;72.00;101068.28;5049964;28;11709;-64
2022/12/12 00:47:14;;;;;;;;;31.00;26.75;;;;;2.44;71.46;101072.63;5069221;28;11610;-65
2022/12/12 00:49:40;;;;;;;;;32.25;21.25;;;;;2.45;71.74;101068.16;5070102;28;11542;-66
2022/12/12 00:52:07;;;;;;;;;30.50;27.75;;;;;2.47;71.80;101061.72;5069619;28;11706;-64
2022/12/12 00:54:33;;;;;;;;;38.00;27.50;;;;;2.50;71.68;101071.22;5072236;28;11572;-65
2022/12/12 00:56:59;;;;;;;;;36.75;31.75;;;;;2.50;71.63;101063.25;5066904;28;11636;-65
2022/12/12 00:59:26;;;;;;;;;27.25;26.25;;;;;2.44;71.76;101069.13;5066067;28;13058;-65
2022/12/12 01:01:52;;;;;;;;;35.75;26.75;;;;;2.39;71.87;101063.34;5055902;28;11601;-64
2022/12/12 01:04:19;;;;;;;;;32.00;25.50;;;;;2.40;71.71;101065.91;5062674;28;11581;-63
2022/12/12 01:06:46;;;;;;;;;32.25;24.75;;;;;2.40;72.42;101065.91;5071470;28;11563;-65
2022/12/12 01:09:12;;;;;;;;;27.00;24.25;;;;;2.40;72.34;101065.91;5055784;28;11651;-65
2022/12/12 01:11:39;;;;;;;;;24.75;24.75;;;;;2.42;72.42;101066.59;5068626;28;11567;-65
2022/12/12 01:14:06;;;;;;;;;33.50;31.50;;;;;2.42;72.44;101069.25;5061416;28;12351;-65
2022/12/12 01:16:32;;;;;;;;;39.75;29.00;;;;;2.43;72.42;101070.06;5050237;28;11590;-61
2022/12/12 01:18:59;;;;;;;;;33.00;25.25;;;;;2.46;72.08;101072.47;5054917;28;11558;-63
2022/12/12 01:21:25;;;;;;;;;31.75;27.00;;;;;2.44;72.39;101077.94;5069031;28;12367;-62
2022/12/12 01:23:52;;;;;;;;;30.75;24.25;;;;;2.46;72.56;101075.13;5058762;28;11599;-68
2022/12/12 01:26:21;;;;;;;;;33.00;30.75;;;;;2.46;72.39;101080.44;5060033;28;11590;-63
2022/12/12 01:28:48;;;;;;;;;34.00;27.00;;;;;2.45;72.11;101079.59;5071730;28;11706;-64
2022/12/12 01:31:16;;;;;;;;;37.25;29.25;;;;;2.47;72.59;101084.78;5064731;28;11583;-64
2022/12/12 01:33:44;;;;;;;;;28.00;27.75;;;;;2.44;72.43;101080.59;5060252;28;12391;-64
2022/12/12 01:36:16;;;;;;;;;33.25;26.00;;;;;2.46;72.48;101083.09;5063505;28;12484;-64
2022/12/12 01:38:48;;;;;;;;;30.75;27.00;;;;;2.41;72.41;101094.13;5057869;28;11581;-65
2022/12/12 01:41:16;;;;;;;;;32.50;24.75;;;;;2.41;72.64;101088.81;5062861;28;11600;-65
2022/12/12 01:43:43;;;;;;;;;32.50;26.75;;;;;2.42;72.72;101089.66;5060898;28;11590;-64
2022/12/12 01:46:32;;;;;;;;;33.00;30.25;;;;;2.42;72.53;101095.81;5071769;28;11600;-63
2022/12/12 01:49:08;;;;;;;;;30.50;28.00;;;;;2.39;72.57;101097.88;5057674;28;11581;-63
2022/12/12 01:51:37;;;;;;;;;40.25;29.50;;;;;2.41;72.46;101094.13;5061425;28;11573;-66
2022/12/12 01:54:07;;;;;;;;;36.00;28.25;;;;;2.36;72.87;101096.38;5060875;28;11573;-65
2022/12/12 01:56:36;;;;;;;;;35.25;33.75;;;;;2.36;72.52;101099.03;5063811;28;11686;-68
2022/12/12 01:59:06;;;;;;;;;32.50;26.50;;;;;2.33;73.22;101099.28;5066600;28;11599;-66
2022/12/12 02:01:33;;;;;;;;;40.75;36.25;;;;;2.22;73.05;101108.19;5060190;28;11624;-66
2022/12/12 02:04:01;;;;;;;;;39.00;30.00;;;;;2.26;73.25;101107.91;5067486;28;11660;-67
2022/12/12 02:06:29;;;;;;;;;33.50;28.50;;;;;2.29;73.38;101105.84;5069400;28;11636;-66
2022/12/12 02:08:59;;;;;;;;;35.50;28.25;;;;;2.31;73.41;101103.91;5067094;28;11610;-69
2022/12/12 02:11:29;;;;;;;;;33.25;25.25;;;;;2.33;72.94;101101.09;5071342;28;11559;-65
2022/12/12 02:13:57;;;;;;;;;49.50;37.75;;;;;2.35;73.23;101096.47;5044973;28;11580;-67
2022/12/12 02:16:48;;;;;;;;;39.00;31.50;;;;;2.36;73.30;101099.03;5054167;28;11619;-65
2022/12/12 02:19:47;;;;;;;;;40.75;30.50;;;;;2.35;72.90;101099.13;5067133;28;11760;-64
2022/12/12 02:22:47;;;;;;;;;41.50;31.50;;;;;2.37;73.17;101103.34;5070741;28;11591;-65
2022/12/12 02:25:20;;;;;;;;;43.25;31.00;;;;;2.38;72.91;101107.69;5066747;28;11583;-64
2022/12/12 02:27:55;;;;;;;;;36.25;34.00;;;;;2.41;73.03;101102.09;5054502;28;11625;-64
2022/12/12 02:30:25;;;;;;;;;34.25;31.25;;;;;2.40;73.00;101103.09;5060147;28;11604;-64
2022/12/12 02:32:57;;;;;;;;;35.25;31.50;;;;;2.40;73.18;101105.75;5064168;28;11574;-65
2022/12/12 02:35:26;;;;;;;;;29.50;24.00;;;;;2.41;73.05;101111.91;5057504;28;11577;-65
2022/12/12 02:38:22;;;;;;;;;38.75;33.75;;;;;2.31;72.95;101114.53;5064026;28;11620;-65
2022/12/12 02:41:03;;;;;;;;;41.50;37.25;;;;;2.21;73.18;101113.63;5065765;28;12414;-63
2022/12/12 02:43:37;;;;;;;;;34.25;28.75;;;;;2.17;73.56;101115.72;5062305;28;11574;-65
2022/12/12 02:46:17;;;;;;;;;43.50;33.75;;;;;2.20;73.61;101118.09;5057737;28;11602;-66
2022/12/12 02:48:54;;;;;;;;;40.00;33.50;;;;;2.22;73.70;101123.28;5070648;28;11678;-64
2022/12/12 02:51:22;;;;;;;;;44.00;34.00;;;;;2.20;74.00;101122.59;5062148;28;11579;-63
2022/12/12 02:53:48;;;;;;;;;38.25;30.50;;;;;2.21;73.54;101130.41;5059464;28;11773;-66
2022/12/12 02:56:44;;;;;;;;;36.75;33.25;;;;;2.21;73.69;101125.09;5060373;28;11609;-63
2022/12/12 02:59:34;;;;;;;;;35.25;34.00;;;;;2.19;73.43;101129.72;5070476;28;11713;-65
2022/12/12 03:02:31;;;;;;;;;32.50;29.25;;;;;2.21;73.89;101125.09;5062634;28;11569;-64
2022/12/12 03:08:29;;;;;;;;;40.00;33.75;;;;;2.23;73.70;101127.63;5058468;28;11599;-66
2022/12/12 03:11:02;;;;;;;;;44.00;31.75;;;;;2.23;73.39;101123.16;5064230;28;11701;-62
2022/12/12 03:13:42;;;;;;;;;36.00;30.25;;;;;2.22;73.36;101124.13;5062294;28;11591;-64
2022/12/12 03:16:30;;;;;;;;;39.50;33.50;;;;;2.22;73.48;101123.28;5068403;28;12293;-65
2022/12/12 03:19:15;;;;;;;;;33.25;29.00;;;;;2.21;73.44;101126.91;5059092;28;11660;-66
2022/12/12 03:21:53;;;;;;;;;34.00;33.50;;;;;2.22;73.41;101125.94;5057169;28;11740;-67
2022/12/12 03:24:43;;;;;;;;;42.50;34.75;;;;;2.20;73.58;101130.56;5064423;28;13464;-68
2022/12/12 03:27:34;;;;;;;;;36.75;36.00;;;;;2.15;73.60;101130.94;5068559;28;11651;-66
2022/12/12 03:30:06;;;;;;;;;42.00;31.75;;;;;2.17;73.71;101136.13;5056121;28;12496;-66
2022/12/12 03:32:40;;;;;;;;;31.50;29.75;;;;;2.18;73.63;101137.78;5062584;28;12339;-67
2022/12/12 03:35:25;;;;;;;;;42.50;37.75;;;;;2.15;73.34;101135.44;5065313;28;11537;-68
2022/12/12 03:38:03;;;;;;;;;40.50;31.50;;;;;2.18;73.52;101135.13;5054629;28;11648;-67
2022/12/12 03:40:42;;;;;;;;;33.75;32.50;;;;;2.14;73.76;101131.06;5061370;28;11591;-68
2022/12/12 03:43:13;;;;;;;;;44.75;34.50;;;;;2.17;73.71;101130.81;5060773;28;11647;-67
2022/12/12 03:45:44;;;;;;;;;43.75;35.00;;;;;2.12;73.44;101125.06;5047192;28;12476;-66
2022/12/12 03:48:22;;;;;;;;;39.25;33.00;;;;;2.14;73.65;101131.06;5066789;28;11666;-67
2022/12/12 03:51:03;;;;;;;;;48.50;40.25;;;;;2.12;73.35;101130.38;5068576;28;11786;-67
2022/12/12 03:53:37;;;;;;;;;41.50;36.25;;;;;2.07;73.39;101138.75;5059030;28;12032;-67
2022/12/12 03:56:17;;;;;;;;;44.50;38.25;;;;;2.00;73.49;101134.91;5065634;28;11683;-67
2022/12/12 03:58:56;;;;;;;;;44.25;39.25;;;;;1.98;73.57;101137.72;5054238;28;11588;-67
2022/12/12 04:01:35;;;;;;;;;51.00;43.00;;;;;1.99;73.50;101138.56;5060337;28;11602;-68
2022/12/12 04:04:21;;;;;;;;;51.25;37.50;;;;;2.02;73.77;101134.78;5064067;28;11621;-66
2022/12/12 04:06:58;;;;;;;;;48.00;38.50;;;;;2.04;73.41;101133.69;5061335;28;11576;-67
2022/12/12 04:15:37;;;;;;;;;53.25;44.75;;;;;1.93;73.52;101134.59;5061289;28;11626;-67
2022/12/12 04:18:34;;;;;;;;;46.25;38.00;;;;;1.95;73.70;101135.31;5066210;28;11784;-67
2022/12/12 04:24:19;;;;;;;;;45.00;37.00;;;;;2.02;73.77;101135.63;5062986;28;11583;-66
2022/12/12 04:27:02;;;;;;;;;47.25;41.75;;;;;2.01;73.29;101133.94;5067676;28;11668;-67
2022/12/12 04:29:49;;;;;;;;;41.25;34.50;;;;;2.04;73.47;101132.84;5072035;28;11591;-68
2022/12/12 04:32:38;;;;;;;;;40.75;32.50;;;;;2.02;73.29;101134.78;5048012;28;11629;-67
2022/12/12 04:35:11;;;;;;;;;43.00;39.75;;;;;2.01;73.43;101144.56;5069577;28;11567;-68
2022/12/12 04:37:42;;;;;;;;;39.00;33.50;;;;;2.00;73.42;101144.72;5070089;28;11595;-67
2022/12/12 04:40:15;;;;;;;;;49.25;37.50;;;;;2.00;73.38;101147.38;5069698;28;11591;-66
2022/12/12 04:42:52;;;;;;;;;53.75;41.25;;;;;1.94;73.66;101146.06;5072599;28;11702;-67
2022/12/12 04:45:22;;;;;;;;;49.00;39.75;;;;;1.93;73.48;101150.53;5067624;28;11593;-66
2022/12/12 04:47:51;;;;;;;;;47.50;40.00;;;;;1.91;73.56;101152.47;5044235;28;12541;-66
2022/12/12 04:50:22;;;;;;;;;40.00;36.75;;;;;1.91;73.50;101149.00;5071207;28;11583;-67
2022/12/12 04:52:52;;;;;;;;;44.75;40.00;;;;;1.90;73.34;101155.25;5067392;28;11607;-67
2022/12/12 04:55:29;;;;;;;;;41.50;36.25;;;;;1.91;73.51;101157.78;5047168;28;11590;-67
2022/12/12 04:57:56;;;;;;;;;44.25;35.75;;;;;1.90;73.93;101158.75;5072690;28;11653;-67
2022/12/12 05:00:25;;;;;;;;;48.50;40.50;;;;;1.89;73.53;101166.84;5064389;28;11659;-67
2022/12/12 05:03:03;;;;;;;;;40.50;34.00;;;;;1.89;73.79;101153.56;5052554;28;11609;-67
2022/12/12 05:05:39;;;;;;;;;45.00;35.00;;;;;1.88;73.53;101155.38;5064331;28;11568;-67
2022/12/12 05:08:29;;;;;;;;;48.50;40.00;;;;;1.86;73.63;101152.00;5054527;28;11728;-67
2022/12/12 05:11:00;;;;;;;;;43.25;38.75;;;;;1.81;73.61;101156.88;5069787;28;11660;-70
2022/12/12 05:13:30;;;;;;;;;41.00;35.50;;;;;1.80;73.90;101152.53;5072638;28;12409;-66
2022/12/12 05:16:00;;;;;;;;;60.25;44.25;;;;;1.79;73.72;101150.88;5070642;28;11583;-66
2022/12/12 05:18:27;;;;;;;;;36.75;31.75;;;;;1.77;74.04;101147.50;5055569;28;11760;-65
2022/12/12 05:20:53;;;;;;;;;43.25;36.25;;;;;1.75;73.50;101149.44;5061450;28;11574;-66
2022/12/12 05:23:20;;;;;;;;;42.50;36.50;;;;;1.68;73.31;101157.06;5066002;28;11605;-66
2022/12/12 05:25:46;;;;;;;;;44.75;41.25;;;;;1.64;73.67;101152.16;5067682;28;11594;-67
2022/12/12 05:28:13;;;;;;;;;44.75;39.00;;;;;1.62;73.67;101154.94;5043013;28;11663;-67
2022/12/12 05:30:39;;;;;;;;;44.75;39.25;;;;;1.60;73.87;101145.41;5061146;28;11607;-67
2022/12/12 05:33:05;;;;;;;;;48.00;40.25;;;;;1.59;73.91;101160.50;5052144;28;11615;-66
2022/12/12 05:35:32;;;;;;;;;43.25;35.00;;;;;1.58;74.31;101155.31;5078433;28;11584;-66
2022/12/12 05:38:00;;;;;;;;;41.75;36.75;;;;;1.56;73.96;101158.09;5077556;28;11706;-67
2022/12/12 05:40:27;;;;;;;;;34.00;31.50;;;;;1.55;73.99;101159.06;5073775;28;12352;-67
2022/12/12 05:42:53;;;;;;;;;37.25;33.50;;;;;1.51;73.81;101155.00;5059370;28;11633;-66
2022/12/12 05:45:20;;;;;;;;;45.75;43.00;;;;;1.49;74.17;101160.41;5061707;28;11607;-67
2022/12/12 05:47:46;;;;;;;;;35.75;33.25;;;;;1.44;74.17;101162.63;5071188;28;12387;-67
2022/12/12 05:50:13;;;;;;;;;46.00;39.50;;;;;1.45;73.70;101164.28;5071427;28;12361;-66
2022/12/12 05:52:39;;;;;;;;;32.25;31.25;;;;;1.43;73.91;101160.09;5072531;28;11587;-67
2022/12/12 05:55:06;;;;;;;;;48.00;34.00;;;;;1.40;73.90;101166.50;5050206;28;11590;-67
2022/12/12 05:57:33;;;;;;;;;38.00;33.50;;;;;1.39;74.24;101164.81;5066682;28;11579;-67
2022/12/12 05:59:59;;;;;;;;;50.00;40.50;;;;;1.36;74.13;101164.22;5064736;28;12358;-67
2022/12/12 06:02:25;;;;;;;;;36.25;36.00;;;;;1.34;73.95;101169.66;5071152;28;11626;-67
2022/12/12 06:04:52;;;;;;;;;48.50;43.50;;;;;1.27;73.78;101168.47;5064327;28;11587;-67
2022/12/12 06:07:18;;;;;;;;;48.25;42.75;;;;;1.25;73.85;101173.03;5058804;28;11635;-67
2022/12/12 06:09:45;;;;;;;;;44.00;36.00;;;;;1.22;73.78;101168.84;5044906;28;11583;-67
2022/12/12 06:12:11;;;;;;;;;34.50;31.00;;;;;1.22;73.92;101174.16;5068809;28;11752;-67
2022/12/12 06:14:38;;;;;;;;;46.00;37.00;;;;;1.21;74.17;101179.56;5051453;28;11630;-67
2022/12/12 06:17:04;;;;;;;;;45.50;35.25;;;;;1.19;73.91;101174.41;5070250;28;11585;-66
2022/12/12 06:19:31;;;;;;;;;44.00;35.25;;;;;1.19;74.09;101177.06;5072981;28;11739;-67
2022/12/12 06:21:57;;;;;;;;;39.75;35.75;;;;;1.16;73.94;101179.09;5052902;28;11724;-67
2022/12/12 06:24:23;;;;;;;;;35.00;31.00;;;;;1.14;74.01;101184.56;5087902;28;11631;-66
2022/12/12 06:26:50;;;;;;;;;44.00;37.75;;;;;1.16;73.65;101193.22;5050931;28;11606;-67
2022/12/12 06:29:17;;;;;;;;;51.50;36.25;;;;;1.17;74.09;101188.75;5050785;28;11737;-67
2022/12/12 06:31:43;;;;;;;;;10.00;6.25;;;;;1.14;73.76;101194.31;5056922;28;11587;-67
2022/12/12 06:34:09;;;;;;;;;41.50;38.75;;;;;1.13;74.23;101189.97;5064833;28;11532;-67
2022/12/12 06:36:36;;;;;;;;;41.25;34.00;;;;;1.13;73.68;101198.75;5067510;28;11584;-66
2022/12/12 06:39:03;;;;;;;;;40.25;35.25;;;;;1.13;74.30;101195.25;5077941;28;11605;-66
2022/12/12 06:41:30;;;;;;;;;36.25;36.00;;;;;1.11;74.07;101197.22;5060108;28;11562;-67
2022/12/12 06:43:57;;;;;;;;;41.00;36.00;;;;;1.10;73.89;101191.06;5060590;28;11581;-66
2022/12/12 06:46:26;;;;;;;;;41.00;35.75;;;;;1.10;73.65;101198.19;5059489;28;11610;-67
2022/12/12 06:48:54;;;;;;;;;43.25;30.00;;;;;1.10;74.12;101198.19;5068229;28;11590;-67
2022/12/12 06:51:23;;;;;;;;;47.25;40.75;;;;;1.09;73.62;101205.25;5068160;28;11649;-67
2022/12/12 06:53:50;;;;;;;;;40.00;34.50;;;;;1.06;73.80;101200.25;5067577;28;11703;-68
2022/12/12 06:56:22;;;;;;;;;41.00;34.25;;;;;1.05;73.88;101205.66;5054094;28;11732;-68
2022/12/12 06:58:49;;;;;;;;;44.75;38.00;;;;;1.03;73.91;101204.94;5061201;28;11582;-67
2022/12/12 07:01:18;;;;;;;;;33.00;30.00;;;;;1.02;73.96;101205.91;5072219;28;11605;-65
2022/12/12 07:03:45;;;;;;;;;43.50;37.25;;;;;0.99;74.04;101201.69;5068937;28;11594;-68
2022/12/12 07:06:11;;;;;;;;;36.25;31.50;;;;;0.97;74.06;101201.81;5061595;28;11783;-66
2022/12/12 07:08:38;;;;;;;;;45.75;39.00;;;;;0.95;73.99;101208.22;5062354;28;11663;-66
2022/12/12 07:11:10;;;;;;;;;38.50;31.00;;;;;0.94;73.79;101214.47;5068013;28;12281;-68
2022/12/12 07:13:37;;;;;;;;;41.00;32.00;;;;;0.92;73.88;101219.03;5068651;28;12323;-67
2022/12/12 07:16:05;;;;;;;;;48.75;40.50;;;;;0.90;74.32;101221.81;5070091;28;11567;-66
2022/12/12 07:18:32;;;;;;;;;44.75;39.00;;;;;0.90;74.31;101226.28;5064171;28;12314;-66
2022/12/12 07:20:58;;;;;;;;;42.00;38.50;;;;;0.89;74.19;101236.06;5069897;28;11613;-67
2022/12/12 07:23:25;;;;;;;;;51.00;33.50;;;;;0.89;73.98;101220.16;5069822;28;11642;-67
2022/12/12 07:25:51;;;;;;;;;42.00;36.00;;;;;0.88;73.96;101222.91;5069578;28;11610;-67
2022/12/12 07:28:17;;;;;;;;;49.00;37.50;;;;;0.89;74.67;101225.44;5052422;28;11698;-67
2022/12/12 07:30:46;;;;;;;;;41.50;37.75;;;;;0.90;74.32;101227.13;5069902;28;11593;-66
2022/12/12 07:33:15;;;;;;;;;44.75;36.25;;;;;0.91;74.62;101230.63;5069900;28;11632;-66
2022/12/12 07:35:42;;;;;;;;;36.25;32.00;;;;;0.90;74.21;101227.13;5069547;28;11573;-66
2022/12/12 07:38:10;;;;;;;;;33.75;32.00;;;;;0.89;74.02;101227.22;5069013;28;11649;-66
2022/12/12 07:40:38;;;;;;;;;41.00;35.75;;;;;0.89;74.44;101233.41;5068859;28;11565;-67
2022/12/12 07:43:04;;;;;;;;;35.75;33.50;;;;;0.87;74.47;101237.13;5068992;28;11591;-65
2022/12/12 07:45:30;;;;;;;;;41.00;37.50;;;;;0.86;74.53;101232.78;5068877;28;11610;-66
2022/12/12 07:47:57;;;;;;;;;42.25;33.50;;;;;0.85;74.68;101242.56;5070396;28;11719;-66
2022/12/12 07:50:24;;;;;;;;;36.75;32.00;;;;;0.84;74.64;101243.50;5088432;28;11700;-67
2022/12/12 07:52:50;;;;;;;;;38.00;33.00;;;;;0.83;74.58;101247.13;5072464;28;11560;-66
2022/12/12 07:55:17;;;;;;;;;43.25;36.25;;;;;0.82;74.46;101248.09;5073351;28;11677;-67
2022/12/12 07:57:44;;;;;;;;;43.75;35.00;;;;;0.84;74.60;101254.09;5074085;28;12356;-68
2022/12/12 08:00:14;;;;;;;;;43.25;37.00;;;;;0.80;74.66;101251.81;5073657;28;11623;-67
2022/12/12 08:02:40;;;;;;;;;39.25;36.75;;;;;0.79;74.98;101264.22;5073288;28;11651;-67
2022/12/12 08:05:07;;;;;;;;;38.25;34.75;;;;;0.80;74.97;101260.59;5073232;28;11605;-67
2022/12/12 08:07:34;;;;;;;;;45.75;35.75;;;;;0.78;74.66;101261.72;5072909;28;11560;-66
2022/12/12 08:10:00;;;;;;;;;38.50;36.50;;;;;0.79;74.52;101260.75;5073554;28;11621;-66
2022/12/12 08:12:30;;;;;;;;;39.50;32.75;;;;;0.80;74.61;101263.25;5074114;28;11591;-66
2022/12/12 08:14:57;;;;;;;;;35.25;30.25;;;;;0.83;74.87;101256.88;5073761;28;11564;-67
2022/12/12 08:17:23;;;;;;;;;33.50;30.75;;;;;1.23;78.41;101257.19;5055279;28;11604;-65
2022/12/12 08:19:50;;;;;;;;;46.75;38.00;;;;;1.21;76.12;101262.59;5073271;28;11577;-66
2022/12/12 08:22:16;;;;;;;;;43.50;35.75;;;;;1.13;75.72;101261.53;5073234;28;11759;-66
2022/12/12 08:24:43;;;;;;;;;46.50;40.25;;;;;1.07;75.42;101264.69;5073043;28;11648;-67
2022/12/12 08:27:10;;;;;;;;;46.25;39.50;;;;;0.94;74.90;101259.53;5073163;28;11700;-67
2022/12/12 08:29:41;;;;;;;;;50.50;45.00;;;;;0.90;74.83;101268.69;5073102;28;11607;-67
2022/12/12 08:32:08;;;;;;;;;53.75;42.50;;;;;0.87;74.85;101275.06;5072750;28;11596;-66
2022/12/12 08:34:34;;;;;;;;;44.50;39.25;;;;;0.87;75.40;101274.22;5072788;28;12335;-66
2022/12/12 08:37:01;;;;;;;;;50.25;41.50;;;;;0.87;74.85;101275.06;5054977;28;11578;-65
2022/12/12 08:39:27;;;;;;;;;46.25;35.50;;;;;0.84;74.56;101264.69;5054433;28;12271;-67
2022/12/12 08:41:53;;;;;;;;;39.00;36.25;;;;;0.85;74.98;101276.13;5073278;28;11587;-67
2022/12/12 08:44:20;;;;;;;;;38.75;35.50;;;;;0.85;74.86;101281.44;5072813;28;11706;-67
2022/12/12 08:46:47;;;;;;;;;42.25;33.50;;;;;0.87;74.63;101282.19;5072989;28;11643;-67
2022/12/12 08:49:15;;;;;;;;;47.00;38.00;;;;;0.82;74.81;101271.94;5071545;28;11698;-67
2022/12/12 08:51:42;;;;;;;;;49.50;44.75;;;;;0.81;74.60;101270.25;5072800;28;11597;-67
2022/12/12 08:54:11;;;;;;;;;46.25;43.00;;;;;0.79;74.55;101276.63;5072483;28;11618;-66
2022/12/12 08:56:37;;;;;;;;;44.75;41.75;;;;;0.81;74.38;101278.22;5072397;28;11615;-67
2022/12/12 08:59:04;;;;;;;;;60.00;46.75;;;;;0.81;74.00;101274.69;5072444;28;11570;-67
2022/12/12 09:01:31;;;;;;;;;54.75;42.50;;;;;0.76;74.20;101279.53;5071908;28;11729;-67
2022/12/12 09:03:58;;;;;;;;;44.00;39.50;;;;;0.70;74.17;101279.03;5071256;28;11681;-66
2022/12/12 09:06:25;;;;;;;;;55.00;42.00;;;;;0.67;73.83;101273.13;5072093;28;11609;-67
2022/12/12 09:08:51;;;;;;;;;39.75;35.50;;;;;0.68;74.47;101266.88;5072293;28;11608;-68
2022/12/12 09:11:18;;;;;;;;;39.50;36.75;;;;;0.70;74.19;101267.59;5072274;28;11596;-67
2022/12/12 09:13:44;;;;;;;;;44.75;40.00;;;;;0.69;73.67;101271.22;5071584;28;11583;-67
2022/12/12 09:16:11;;;;;;;;;52.00;41.50;;;;;0.75;74.08;101276.03;5068967;28;11563;-66
2022/12/12 09:18:39;;;;;;;;;47.00;35.25;;;;;0.83;73.81;101284.22;5054011;28;11599;-67
2022/12/12 09:21:13;;;;;;;;;52.25;42.00;;;;;0.85;74.00;101278.78;5068060;28;11702;-66
2022/12/12 09:23:40;;;;;;;;;49.25;41.50;;;;;0.77;73.11;101281.19;5072302;28;11594;-67
2022/12/12 09:26:08;;;;;;;;;40.25;37.50;;;;;0.77;73.16;101282.06;5071254;28;11585;-68
2022/12/12 09:28:34;;;;;;;;;46.00;40.00;;;;;0.77;73.45;101282.06;5071821;28;11562;-67
2022/12/12 09:31:09;;;;;;;;;44.00;35.75;;;;;0.81;73.61;101282.66;5070193;28;11577;-67
2022/12/12 09:33:37;;;;;;;;;37.25;36.25;;;;;0.85;73.49;101287.63;5069669;28;11597;-66
2022/12/12 09:36:06;;;;;;;;;40.75;37.00;;;;;0.88;73.25;101291.81;5071094;28;11609;-67
2022/12/12 09:38:34;;;;;;;;;46.25;37.25;;;;;0.92;73.22;101287.94;5069294;28;11616;-66
2022/12/12 09:41:13;;;;;;;;;46.25;35.75;;;;;0.97;73.17;101288.44;5071754;28;11578;-66
2022/12/12 09:44:18;;;;;;;;;52.50;45.00;;;;;0.92;73.23;101272.88;5070376;28;12435;-65
2022/12/12 09:46:59;;;;;;;;;42.50;32.75;;;;;1.46;79.07;101277.41;4970461;28;11535;-66
2022/12/12 09:49:52;;;;;;;;;46.75;41.75;;;;;1.53;74.91;101277.72;5062733;28;11566;-66
2022/12/12 09:52:30;;;;;;;;;52.00;42.50;;;;;1.41;73.61;101273.44;5071532;28;11594;-66
2022/12/12 09:55:21;;;;;;;;;36.25;30.75;;;;;1.38;73.14;101274.53;5071020;28;11639;-66
2022/12/12 09:57:58;;;;;;;;;48.50;43.25;;;;;1.34;72.68;101272.25;5071823;28;11585;-66
2022/12/12 10:00:28;;;;;;;;;51.25;42.75;;;;;1.38;72.85;101268.38;5072089;28;11716;-66
2022/12/12 10:03:43;;;;;;;;;46.00;38.00;;;;;1.37;72.62;101269.34;5071503;28;11620;-67
2022/12/12 10:06:11;;;;;;;;;46.00;43.50;;;;;1.39;72.28;101270.91;5052798;28;11601;-67
2022/12/12 10:09:08;;;;;;;;;55.75;45.00;;;;;1.41;72.14;101274.25;5071683;28;11581;-66
2022/12/12 10:11:53;;;;;;;;;46.25;36.00;;;;;1.43;71.84;101269.69;5070100;28;11593;-68
2022/12/12 10:14:38;;;;;;;;;48.50;43.25;;;;;1.47;71.75;101280.91;5071183;28;12031;-66
2022/12/12 10:17:23;;;;;;;;;51.50;37.75;;;;;1.45;71.74;101281.00;5071273;28;11579;-66
2022/12/12 10:19:58;;;;;;;;;43.50;35.50;;;;;1.39;71.56;101270.91;5064746;28;11726;-67
2022/12/12 10:22:49;;;;;;;;;54.75;45.00;;;;;1.43;71.49;101272.34;5070631;28;11618;-66
2022/12/12 10:25:26;;;;;;;;;40.75;38.50;;;;;1.50;71.66;101272.69;5070536;28;11699;-67
2022/12/12 10:28:14;;;;;;;;;48.00;39.00;;;;;1.43;71.53;101266.19;5070795;28;12279;-66
2022/12/12 10:31:22;;;;;;;;;58.75;44.00;;;;;1.40;71.45;101267.28;5072256;28;12264;-66
2022/12/12 10:34:07;;;;;;;;;46.50;40.75;;;;;1.48;71.92;101262.19;5036833;28;11612;-67
2022/12/12 10:37:07;;;;;;;;;44.50;42.00;;;;;1.48;71.49;101269.31;5050784;28;11619;-66
2022/12/12 10:40:13;;;;;;;;;48.50;41.75;;;;;1.45;71.18;101273.03;5050657;28;11601;-67
2022/12/12 10:42:46;;;;;;;;;47.50;42.50;;;;;1.45;71.34;101264.25;5050504;28;11610;-67
2022/12/12 10:45:37;;;;;;;;;41.75;36.50;;;;;1.44;71.48;101268.72;5055826;28;11565;-66
2022/12/12 10:48:04;;;;;;;;;41.75;35.75;;;;;1.45;71.12;101265.09;5070794;28;11620;-65
2022/12/12 10:51:02;;;;;;;;;44.25;36.75;;;;;1.44;71.14;101257.28;5051955;28;11621;-66
2022/12/12 10:53:31;;;;;;;;;43.50;33.75;;;;;1.45;70.84;101259.78;5068874;28;12285;-66
2022/12/12 10:56:03;;;;;;;;;39.50;32.50;;;;;1.50;71.15;101254.13;5069823;28;11559;-66
2022/12/12 10:58:39;;;;;;;;;51.25;36.75;;;;;1.49;70.88;101255.91;5070672;28;11684;-66
2022/12/12 11:01:18;;;;;;;;;41.25;34.75;;;;;1.50;70.77;101248.81;5070230;28;11590;-66
2022/12/12 11:04:04;;;;;;;;;35.25;30.25;;;;;1.52;70.68;101254.84;5069568;28;11636;-66
2022/12/12 11:06:42;;;;;;;;;45.75;41.50;;;;;1.49;70.40;101255.91;5069276;28;11557;-66
2022/12/12 11:09:21;;;;;;;;;44.00;39.75;;;;;1.53;70.66;101250.38;5070249;28;11549;-67
2022/12/12 11:12:11;;;;;;;;;37.50;33.50;;;;;1.55;70.42;101246.63;5070033;28;11549;-66
2022/12/12 11:14:43;;;;;;;;;40.75;35.75;;;;;1.58;70.66;101238.44;5069906;28;11578;-67
2022/12/12 11:17:28;;;;;;;;;45.25;38.50;;;;;1.59;70.14;101240.09;5069937;28;11586;-67
2022/12/12 11:19:57;;;;;;;;;43.75;38.25;;;;;1.59;70.45;101245.41;5069924;28;11618;-65
2022/12/12 11:22:25;;;;;;;;;36.00;31.50;;;;;1.61;70.01;101243.47;5069870;28;12452;-67
2022/12/12 11:24:53;;;;;;;;;42.50;34.75;;;;;1.64;70.23;101243.22;5069426;28;12016;-66
2022/12/12 11:27:23;;;;;;;;;38.75;35.50;;;;;1.66;70.11;101243.06;5069641;28;11690;-67
2022/12/12 11:29:53;;;;;;;;;40.25;34.00;;;;;1.67;70.13;101245.63;5069893;28;11729;-66
2022/12/12 11:32:25;;;;;;;;;36.00;32.50;;;;;1.72;70.22;101240.75;5068784;28;11722;-67
2022/12/12 11:34:55;;;;;;;;;36.00;33.50;;;;;1.76;69.90;101244.00;5051527;28;11563;-67
2022/12/12 11:37:25;;;;;;;;;36.75;36.25;;;;;1.70;69.53;101239.19;5069968;28;12371;-67
2022/12/12 11:39:54;;;;;;;;;41.75;35.50;;;;;1.69;69.10;101235.69;5069991;28;11660;-67
2022/12/12 11:42:26;;;;;;;;;40.00;36.00;;;;;1.75;69.48;101234.38;5069671;28;11564;-66
2022/12/12 11:45:00;;;;;;;;;41.75;39.50;;;;;1.78;68.98;101234.09;5069624;28;11685;-65
2022/12/12 11:47:41;;;;;;;;;43.25;32.00;;;;;1.80;68.92;101236.63;5069482;28;11849;-66
2022/12/12 11:50:28;;;;;;;;;41.75;32.00;;;;;1.77;68.88;101235.06;5069226;28;11697;-65
2022/12/12 11:53:02;;;;;;;;;40.00;36.75;;;;;1.78;69.35;101238.56;5069654;28;11677;-65